createdAt,value
2023-11-30T00:01:42.980Z,1.44
2023-11-30T00:04:10.751Z,1.43
2023-11-30T00:06:39.293Z,1.45
2023-11-30T00:09:06.964Z,1.41
2023-11-30T00:11:34.629Z,1.37
2023-11-30T00:14:03.216Z,1.37
2023-11-30T00:16:32.454Z,1.34
2023-11-30T00:19:00.359Z,1.37
2023-11-30T00:21:28.111Z,1.33
2023-11-30T00:23:59.567Z,1.40
2023-11-30T00:26:30.729Z,1.38
2023-11-30T00:28:58.474Z,1.42
2023-11-30T00:31:29.437Z,1.37
2023-11-30T00:33:58.973Z,1.35
2023-11-30T00:36:26.701Z,1.34
2023-11-30T00:38:54.564Z,1.36
2023-11-30T00:41:22.820Z,1.34
2023-11-30T00:43:52.361Z,1.34
2023-11-30T00:46:20.383Z,1.46
2023-11-30T00:48:48.318Z,1.44
2023-11-30T00:51:17.755Z,1.49
2023-11-30T00:53:45.409Z,1.41
2023-11-30T00:56:13.664Z,1.29
2023-11-30T00:58:41.413Z,1.46
2023-11-30T01:01:09.250Z,1.49
2023-11-30T01:03:37.023Z,1.29
2023-11-30T01:06:05.050Z,1.43
2023-11-30T01:08:34.332Z,1.27
2023-11-30T01:11:04.630Z,1.44
2023-11-30T01:13:34.146Z,1.35
2023-11-30T01:16:01.942Z,1.41
2023-11-30T01:18:30.135Z,1.29
2023-11-30T01:20:58.456Z,1.27
2023-11-30T01:23:26.345Z,1.29
2023-11-30T01:25:55.361Z,1.34
2023-11-30T01:28:23.206Z,1.31
2023-11-30T01:30:50.945Z,1.40
2023-11-30T01:33:18.703Z,1.32
2023-11-30T01:35:48.841Z,1.40
2023-11-30T01:38:16.632Z,1.47
2023-11-30T01:40:44.360Z,1.34
2023-11-30T01:43:13.626Z,1.41
2023-11-30T01:45:41.461Z,1.21
2023-11-30T01:48:09.356Z,1.20
2023-11-30T01:50:37.112Z,1.27
2023-11-30T01:53:04.735Z,1.25
2023-11-30T01:55:32.706Z,1.26
2023-11-30T01:58:01.189Z,1.11
2023-11-30T02:00:32.662Z,1.20
2023-11-30T02:03:00.999Z,1.16
2023-11-30T02:05:29.957Z,1.09
2023-11-30T02:07:57.810Z,1.00
2023-11-30T02:10:26.369Z,0.96
2023-11-30T02:12:55.360Z,0.94
2023-11-30T02:15:25.055Z,0.92
2023-11-30T02:17:54.269Z,0.98
2023-11-30T02:20:22.169Z,0.81
2023-11-30T02:22:51.386Z,0.81
2023-11-30T02:25:19.356Z,0.91
2023-11-30T02:27:50.491Z,0.99
2023-11-30T02:30:18.269Z,0.74
2023-11-30T02:32:46.149Z,0.78
2023-11-30T02:35:14.014Z,0.71
2023-11-30T02:37:41.836Z,0.78
2023-11-30T02:40:12.146Z,0.92
2023-11-30T02:42:39.851Z,0.96
2023-11-30T02:45:08.652Z,1.08
2023-11-30T02:47:36.651Z,0.89
2023-11-30T02:50:05.006Z,1.00
2023-11-30T02:52:32.741Z,1.15
2023-11-30T02:55:00.474Z,1.23
2023-11-30T02:57:29.508Z,1.12
2023-11-30T02:59:57.447Z,1.30
2023-11-30T03:02:26.816Z,1.24
2023-11-30T03:04:55.817Z,1.17
2023-11-30T03:07:23.470Z,1.13
2023-11-30T03:09:51.155Z,1.15
2023-11-30T03:12:18.916Z,1.13
2023-11-30T03:14:48.130Z,1.20
2023-11-30T03:17:16.029Z,1.21
2023-11-30T03:19:44.212Z,1.18
2023-11-30T03:22:12.122Z,1.26
2023-11-30T03:24:39.867Z,1.21
2023-11-30T03:27:10.332Z,1.20
2023-11-30T03:29:38.039Z,1.28
2023-11-30T03:32:07.295Z,1.28
2023-11-30T03:34:34.919Z,1.44
2023-11-30T03:37:02.730Z,1.29
2023-11-30T03:39:30.560Z,1.13
2023-11-30T03:41:58.344Z,1.13
2023-11-30T03:44:25.988Z,1.11
2023-11-30T03:46:53.759Z,1.20
2023-11-30T03:49:22.764Z,1.12
2023-11-30T03:51:50.662Z,1.02
2023-11-30T03:54:18.435Z,1.20
2023-11-30T03:56:46.162Z,1.09
2023-11-30T03:59:13.858Z,1.02
2023-11-30T04:01:42.932Z,0.90
2023-11-30T04:04:10.635Z,0.78
2023-11-30T04:06:39.912Z,0.84
2023-11-30T04:09:08.450Z,0.84
2023-11-30T04:11:36.495Z,0.80
2023-11-30T04:14:08.667Z,0.72
2023-11-30T04:16:38.303Z,0.76
2023-11-30T04:19:06.095Z,0.85
2023-11-30T04:21:36.559Z,0.91
2023-11-30T04:24:05.355Z,0.89
2023-11-30T04:26:33.101Z,0.70
2023-11-30T04:29:00.871Z,0.72
2023-11-30T04:31:28.777Z,0.77
2023-11-30T04:33:56.566Z,0.72
2023-11-30T04:36:24.323Z,0.84
2023-11-30T04:38:52.073Z,0.80
2023-11-30T04:41:21.113Z,0.85
2023-11-30T04:43:48.883Z,0.87
2023-11-30T04:46:16.688Z,0.90
2023-11-30T04:48:44.448Z,0.89
2023-11-30T04:51:12.178Z,0.94
2023-11-30T04:53:39.918Z,0.91
2023-11-30T04:56:08.388Z,0.98
2023-11-30T04:58:37.420Z,1.05
2023-11-30T05:01:05.991Z,1.01
2023-11-30T05:03:33.939Z,1.03
2023-11-30T05:06:01.844Z,1.07
2023-11-30T05:08:29.591Z,0.90
2023-11-30T05:10:57.305Z,0.80
2023-11-30T05:13:24.975Z,0.84
2023-11-30T05:15:54.013Z,0.89
2023-11-30T05:18:21.749Z,0.86
2023-11-30T05:20:49.422Z,0.99
2023-11-30T05:23:17.758Z,0.97
2023-11-30T05:25:45.527Z,1.02
2023-11-30T05:28:13.257Z,0.99
2023-11-30T05:30:40.954Z,1.07
2023-11-30T05:33:10.179Z,1.11
2023-11-30T05:35:37.904Z,0.98
2023-11-30T05:38:05.555Z,0.92
2023-11-30T05:40:33.256Z,0.95
2023-11-30T05:43:00.925Z,0.94
2023-11-30T05:45:29.093Z,1.03
2023-11-30T05:47:56.899Z,1.05
2023-11-30T05:50:26.000Z,1.06
2023-11-30T05:52:53.913Z,1.01
2023-11-30T05:55:21.973Z,1.08
2023-11-30T05:57:49.662Z,1.14
2023-11-30T06:00:18.275Z,1.17
2023-11-30T06:02:46.005Z,1.27
2023-11-30T06:05:13.821Z,1.11
2023-11-30T06:07:45.845Z,1.15
2023-11-30T06:10:15.137Z,1.02
2023-11-30T06:12:42.850Z,1.04
2023-11-30T06:15:11.648Z,1.14
2023-11-30T06:17:39.388Z,1.03
2023-11-30T06:20:11.399Z,1.01
2023-11-30T06:22:39.371Z,1.06
2023-11-30T06:25:09.993Z,1.13
2023-11-30T06:27:37.724Z,1.09
2023-11-30T06:30:06.128Z,1.08
2023-11-30T06:32:34.005Z,1.12
2023-11-30T06:35:01.649Z,1.14
2023-11-30T06:37:29.376Z,1.04
2023-11-30T06:39:57.058Z,1.09
2023-11-30T06:42:26.268Z,1.13
2023-11-30T06:44:53.988Z,1.14
2023-11-30T06:47:21.955Z,1.10
2023-11-30T06:49:49.752Z,1.15
2023-11-30T06:52:18.079Z,1.10
2023-11-30T06:54:45.731Z,1.15
2023-11-30T06:57:15.853Z,1.20
2023-11-30T06:59:44.931Z,1.16
2023-11-30T07:02:12.832Z,0.86
2023-11-30T07:04:40.926Z,1.05
2023-11-30T07:07:11.355Z,1.11
2023-11-30T07:09:40.828Z,1.00
2023-11-30T07:12:09.279Z,0.98
2023-11-30T07:14:50.453Z,0.96
2023-11-30T07:17:24.492Z,1.03
2023-11-30T07:19:52.794Z,1.00
2023-11-30T07:22:21.558Z,0.91
2023-11-30T07:24:49.702Z,0.88
2023-11-30T07:27:18.945Z,0.86
2023-11-30T07:29:46.725Z,0.92
2023-11-30T07:32:17.184Z,0.91
2023-11-30T07:34:46.745Z,0.98
2023-11-30T07:37:17.577Z,0.95
2023-11-30T07:39:45.326Z,1.13
2023-11-30T07:42:14.252Z,1.03
2023-11-30T07:44:44.436Z,0.92
2023-11-30T07:47:12.386Z,0.83
2023-11-30T07:49:40.053Z,0.85
2023-11-30T07:52:09.247Z,0.87
2023-11-30T07:54:36.948Z,0.79
2023-11-30T07:57:04.952Z,0.70
2023-11-30T07:59:32.647Z,0.74
2023-11-30T08:02:01.383Z,0.83
2023-11-30T08:04:30.066Z,0.75
2023-11-30T08:06:57.838Z,0.90
2023-11-30T08:09:26.881Z,0.93
2023-11-30T08:11:54.545Z,1.10
2023-11-30T08:14:22.243Z,1.05
2023-11-30T08:16:49.999Z,0.96
2023-11-30T08:19:17.797Z,0.78
2023-11-30T08:21:46.221Z,0.87
2023-11-30T08:24:14.195Z,0.88
2023-11-30T08:26:43.715Z,0.94
2023-11-30T08:29:11.400Z,0.90
2023-11-30T08:31:39.085Z,0.89
2023-11-30T08:34:06.766Z,1.11
2023-11-30T08:36:34.385Z,1.06
2023-11-30T08:39:04.255Z,1.13
2023-11-30T08:41:32.294Z,0.90
2023-11-30T08:44:01.250Z,1.08
2023-11-30T08:46:29.493Z,1.08
2023-11-30T08:48:57.185Z,1.16
2023-11-30T08:51:25.283Z,1.17
2023-11-30T08:53:52.940Z,1.15
2023-11-30T08:56:20.848Z,1.22
2023-11-30T08:58:48.489Z,1.35
2023-11-30T09:01:17.536Z,1.45
2023-11-30T09:03:46.273Z,1.09
2023-11-30T09:06:14.098Z,1.21
2023-11-30T09:08:41.931Z,1.28
2023-11-30T09:11:09.936Z,1.27
2023-11-30T09:13:37.795Z,1.25
2023-11-30T09:16:06.090Z,1.26
2023-11-30T09:18:35.132Z,1.18
2023-11-30T09:21:02.925Z,1.02
2023-11-30T09:23:30.983Z,0.92
2023-11-30T09:25:58.715Z,0.93
2023-11-30T09:28:26.418Z,1.04
2023-11-30T09:30:54.160Z,1.15
2023-11-30T09:33:21.950Z,1.15
2023-11-30T09:35:51.110Z,1.09
2023-11-30T09:38:18.951Z,1.20
2023-11-30T09:40:46.789Z,1.26
2023-11-30T09:43:17.573Z,1.32
2023-11-30T09:45:47.027Z,1.33
2023-11-30T09:48:15.054Z,1.22
2023-11-30T09:50:43.098Z,1.36
2023-11-30T09:53:12.439Z,1.31
2023-11-30T09:55:40.186Z,1.29
2023-11-30T09:58:07.879Z,1.36
2023-11-30T10:00:35.596Z,1.29
2023-11-30T10:03:06.987Z,1.20
2023-11-30T10:05:34.825Z,1.04
2023-11-30T10:08:04.162Z,1.11
2023-11-30T10:10:33.329Z,1.02
2023-11-30T10:13:00.998Z,1.26
2023-11-30T10:15:28.850Z,1.11
2023-11-30T10:17:56.737Z,1.10
2023-11-30T10:20:26.890Z,1.24
2023-11-30T10:22:54.644Z,1.21
2023-11-30T10:25:22.460Z,1.37
2023-11-30T10:27:53.996Z,1.36
2023-11-30T10:30:23.857Z,1.14
2023-11-30T10:32:51.758Z,1.54
2023-11-30T10:35:21.283Z,1.16
2023-11-30T10:37:51.592Z,1.22
2023-11-30T10:40:20.521Z,1.37
2023-11-30T10:42:50.952Z,1.37
2023-11-30T10:45:19.475Z,1.35
2023-11-30T10:47:47.914Z,1.45
2023-11-30T10:50:16.188Z,1.45
2023-11-30T10:52:45.212Z,1.57
2023-11-30T10:55:14.387Z,1.60
2023-11-30T10:57:43.230Z,1.62
2023-11-30T11:00:14.988Z,1.68
2023-11-30T11:02:44.690Z,1.71
2023-11-30T11:05:14.736Z,1.70
2023-11-30T11:07:45.889Z,1.73
2023-11-30T11:10:23.252Z,1.70
2023-11-30T11:12:51.598Z,1.68
2023-11-30T11:15:23.640Z,1.73
2023-11-30T11:17:53.709Z,1.68
2023-11-30T11:20:25.998Z,1.79
2023-11-30T11:22:55.618Z,1.68
2023-11-30T11:25:23.378Z,1.81
2023-11-30T11:27:51.015Z,1.98
2023-11-30T11:30:18.957Z,2.09
2023-11-30T11:32:50.605Z,2.10
2023-11-30T11:35:18.366Z,1.84
2023-11-30T11:37:46.053Z,2.05
2023-11-30T11:40:13.860Z,1.99
2023-11-30T11:42:41.543Z,1.93
2023-11-30T11:45:10.294Z,1.77
2023-11-30T11:47:38.126Z,1.92
2023-11-30T11:50:08.229Z,1.83
2023-11-30T11:52:36.164Z,1.96
2023-11-30T11:55:05.953Z,1.90
2023-11-30T11:57:38.057Z,1.88
2023-11-30T12:00:07.262Z,1.85
2023-11-30T12:02:35.968Z,1.89
2023-11-30T12:05:14.770Z,1.61
2023-11-30T12:07:50.190Z,1.79
2023-11-30T12:10:32.012Z,1.90
2023-11-30T12:13:00.832Z,2.01
2023-11-30T12:15:29.429Z,2.15
2023-11-30T12:17:57.545Z,2.06
2023-11-30T12:20:26.977Z,2.10
2023-11-30T12:22:54.706Z,1.94
2023-11-30T12:25:22.460Z,1.91
2023-11-30T12:27:51.065Z,2.13
2023-11-30T12:30:19.554Z,1.98
2023-11-30T12:32:47.638Z,1.99
2023-11-30T12:35:15.294Z,1.98
2023-11-30T12:37:44.447Z,2.08
2023-11-30T12:40:14.576Z,2.15
2023-11-30T12:42:43.057Z,2.31
2023-11-30T12:45:11.632Z,2.46
2023-11-30T12:47:42.099Z,2.57
2023-11-30T12:50:13.666Z,2.52
2023-11-30T12:52:41.492Z,2.50
2023-11-30T12:55:11.173Z,2.25
2023-11-30T12:57:40.789Z,2.49
2023-11-30T13:00:16.045Z,2.40
2023-11-30T13:02:46.665Z,2.28
2023-11-30T13:05:15.071Z,2.47
2023-11-30T13:07:42.789Z,2.44
2023-11-30T13:10:12.640Z,2.61
2023-11-30T13:12:41.784Z,2.71
2023-11-30T13:15:12.154Z,2.82
2023-11-30T13:17:41.123Z,2.92
2023-11-30T13:20:13.736Z,2.90
2023-11-30T13:22:41.739Z,2.91
2023-11-30T13:25:12.322Z,2.97
2023-11-30T13:27:40.279Z,2.98
2023-11-30T13:30:09.961Z,2.90
2023-11-30T13:32:37.727Z,3.14
2023-11-30T13:35:07.143Z,3.02
2023-11-30T13:37:35.970Z,3.05
2023-11-30T13:40:06.621Z,3.04
2023-11-30T13:42:35.744Z,2.97
2023-11-30T13:45:03.546Z,3.06
2023-11-30T13:47:31.795Z,3.16
2023-11-30T13:49:59.552Z,3.11
2023-11-30T13:52:28.474Z,2.97
2023-11-30T13:54:56.150Z,3.13
2023-11-30T13:57:23.790Z,2.99
2023-11-30T13:59:52.818Z,2.97
2023-11-30T14:02:20.625Z,3.06
2023-11-30T14:04:50.543Z,2.89
2023-11-30T14:07:18.399Z,2.82
2023-11-30T14:09:46.290Z,2.97
2023-11-30T14:12:14.107Z,2.92
2023-11-30T14:14:42.521Z,2.91
2023-11-30T14:17:11.724Z,2.88
2023-11-30T14:19:39.360Z,2.79
2023-11-30T14:22:10.648Z,2.75
2023-11-30T14:24:38.596Z,2.70
2023-11-30T14:27:07.052Z,2.78
2023-11-30T14:29:34.735Z,2.78
2023-11-30T14:32:04.419Z,2.76
2023-11-30T14:34:33.428Z,2.69
2023-11-30T14:37:01.509Z,2.69
2023-11-30T14:39:29.697Z,2.71
2023-11-30T14:41:57.677Z,2.64
2023-11-30T14:44:26.080Z,2.56
2023-11-30T14:46:53.857Z,2.66
2023-11-30T14:49:21.521Z,2.61
2023-11-30T14:51:50.630Z,2.65
2023-11-30T14:54:18.310Z,2.65
2023-11-30T14:56:45.968Z,2.57
2023-11-30T14:59:13.718Z,2.54
2023-11-30T15:01:41.648Z,2.49
2023-11-30T15:04:12.158Z,2.44
2023-11-30T15:06:44.267Z,2.42
2023-11-30T15:09:15.444Z,2.38
2023-11-30T15:11:44.380Z,2.24
2023-11-30T15:14:12.181Z,2.48
2023-11-30T15:16:40.698Z,2.37
2023-11-30T15:19:09.889Z,2.31
2023-11-30T15:21:37.647Z,2.24
2023-11-30T15:24:05.784Z,2.21
2023-11-30T15:26:34.833Z,2.15
2023-11-30T15:29:02.588Z,2.09
2023-11-30T15:31:30.297Z,2.12
2023-11-30T15:33:58.143Z,2.17
2023-11-30T15:36:26.054Z,2.19
2023-11-30T15:38:53.859Z,2.10
2023-11-30T15:41:21.590Z,2.15
2023-11-30T15:43:50.632Z,2.11
2023-11-30T15:46:18.295Z,2.15
2023-11-30T15:48:46.061Z,2.04
2023-11-30T15:51:13.751Z,2.04
2023-11-30T15:53:41.632Z,1.98
2023-11-30T15:56:09.970Z,1.98
2023-11-30T15:58:38.588Z,1.85
2023-11-30T16:01:11.889Z,1.88
2023-11-30T16:03:39.794Z,1.88
2023-11-30T16:06:11.329Z,1.86
2023-11-30T16:08:39.178Z,1.76
2023-11-30T16:11:13.498Z,1.74
2023-11-30T16:13:41.360Z,1.68
2023-11-30T16:16:13.276Z,1.76
2023-11-30T16:18:41.488Z,1.79
2023-11-30T16:21:16.676Z,1.79
2023-11-30T16:23:44.424Z,1.75
2023-11-30T16:26:18.128Z,1.79
2023-11-30T16:28:45.887Z,1.72
2023-11-30T16:31:15.041Z,1.77
2023-11-30T16:33:43.360Z,1.76
2023-11-30T16:36:12.397Z,1.74
2023-11-30T16:38:40.090Z,1.64
2023-11-30T16:41:08.607Z,1.65
2023-11-30T16:43:37.398Z,1.61
2023-11-30T16:46:07.232Z,1.55
2023-11-30T16:48:36.339Z,1.47
2023-11-30T16:51:07.036Z,1.45
2023-11-30T16:53:34.951Z,1.53
2023-11-30T16:56:03.935Z,1.61
2023-11-30T16:58:32.520Z,1.42
2023-11-30T17:01:00.332Z,1.49
2023-11-30T17:03:28.101Z,1.33
2023-11-30T17:05:57.964Z,1.22
2023-11-30T17:08:25.902Z,1.27
2023-11-30T17:10:53.833Z,1.22
2023-11-30T17:13:21.470Z,1.18
2023-11-30T17:15:49.341Z,1.01
2023-11-30T17:18:16.982Z,1.18
2023-11-30T17:20:44.619Z,1.18
2023-11-30T17:23:13.891Z,1.05
2023-11-30T17:25:41.599Z,1.03
2023-11-30T17:28:09.266Z,1.11
2023-11-30T17:30:37.059Z,0.88
2023-11-30T17:33:05.100Z,1.00
2023-11-30T17:35:33.024Z,0.88
2023-11-30T17:38:00.826Z,0.75
2023-11-30T17:40:29.918Z,0.72
2023-11-30T17:42:58.208Z,0.68
2023-11-30T17:45:25.980Z,0.67
2023-11-30T17:47:54.905Z,0.61
2023-11-30T17:50:24.157Z,0.60
2023-11-30T17:52:51.854Z,0.60
2023-11-30T17:55:20.489Z,0.57
2023-11-30T17:57:49.582Z,0.70
2023-11-30T18:00:18.234Z,0.68
2023-11-30T18:02:45.978Z,0.71
2023-11-30T18:05:13.678Z,0.73
2023-11-30T18:07:41.407Z,0.72
2023-11-30T18:10:10.032Z,0.89
2023-11-30T18:12:37.843Z,1.19
2023-11-30T18:15:08.246Z,0.87
2023-11-30T18:17:35.914Z,0.93
2023-11-30T18:20:03.765Z,0.90
2023-11-30T18:22:34.068Z,1.00
2023-11-30T18:25:02.106Z,0.97
2023-11-30T18:27:29.977Z,0.99
2023-11-30T18:29:57.843Z,0.90
2023-11-30T18:32:26.952Z,0.86
2023-11-30T18:34:55.760Z,0.81
2023-11-30T18:37:24.430Z,0.79
2023-11-30T18:39:52.214Z,0.78
2023-11-30T18:42:19.917Z,0.85
2023-11-30T18:44:47.788Z,0.91
2023-11-30T18:47:15.823Z,0.96
2023-11-30T18:49:44.919Z,0.93
2023-11-30T18:52:12.561Z,0.92
2023-11-30T18:54:40.418Z,0.88
2023-11-30T18:57:08.069Z,0.94
2023-11-30T18:59:35.882Z,0.95
2023-11-30T19:02:03.649Z,0.89
2023-11-30T19:04:31.420Z,0.95
2023-11-30T19:07:00.519Z,0.95
2023-11-30T19:09:28.239Z,0.83
2023-11-30T19:11:56.046Z,0.79
2023-11-30T19:14:23.687Z,0.82
2023-11-30T19:16:51.449Z,0.81
2023-11-30T19:19:19.331Z,0.83
2023-11-30T19:21:48.733Z,0.75
2023-11-30T19:24:17.974Z,0.78
2023-11-30T19:26:45.635Z,0.75
2023-11-30T19:29:14.055Z,0.79
2023-11-30T19:31:42.019Z,0.83
2023-11-30T19:34:10.511Z,0.85
2023-11-30T19:36:39.821Z,0.80
2023-11-30T19:39:10.653Z,0.86
2023-11-30T19:41:42.364Z,0.85
2023-11-30T19:44:10.195Z,0.85
2023-11-30T19:46:39.088Z,0.88
2023-11-30T19:49:06.967Z,0.82
2023-11-30T19:51:34.839Z,0.85
2023-11-30T19:54:03.283Z,0.75
2023-11-30T19:56:32.326Z,0.85
2023-11-30T19:59:02.045Z,0.83
2023-11-30T20:01:29.810Z,0.59
2023-11-30T20:03:57.634Z,0.74
2023-11-30T20:06:25.602Z,0.69
2023-11-30T20:08:53.374Z,0.60
2023-11-30T20:11:22.476Z,0.71
2023-11-30T20:13:51.598Z,0.77
2023-11-30T20:16:20.728Z,0.61
2023-11-30T20:18:48.469Z,0.66
2023-11-30T20:21:21.056Z,0.80
2023-11-30T20:23:48.914Z,0.78
2023-11-30T20:26:18.762Z,0.77
2023-11-30T20:28:47.005Z,0.79
2023-11-30T20:31:15.088Z,0.80
2023-11-30T20:33:46.839Z,0.79
2023-11-30T20:36:14.702Z,0.80
2023-11-30T20:38:42.329Z,0.79
2023-11-30T20:41:11.212Z,0.76
2023-11-30T20:43:38.860Z,0.64
2023-11-30T20:46:07.130Z,0.66
2023-11-30T20:48:34.842Z,0.66
2023-11-30T20:51:03.999Z,0.59
2023-11-30T20:53:31.767Z,0.66
2023-11-30T20:56:00.181Z,0.75
2023-11-30T20:58:28.008Z,0.74
2023-11-30T21:00:55.962Z,0.72
2023-11-30T21:03:23.818Z,0.75
2023-11-30T21:08:39.621Z,0.79
2023-11-30T21:11:08.630Z,0.89
2023-11-30T21:13:36.299Z,0.81
2023-11-30T21:16:04.169Z,0.83
2023-11-30T21:18:31.993Z,0.86
2023-11-30T21:20:59.692Z,0.86
2023-11-30T21:23:27.426Z,0.82
2023-11-30T21:25:56.605Z,0.91
2023-11-30T21:28:24.271Z,0.84
2023-11-30T21:30:51.970Z,0.78
2023-11-30T21:33:20.654Z,0.81
2023-11-30T21:35:48.291Z,0.74
2023-11-30T21:38:16.036Z,0.86
2023-11-30T21:40:43.953Z,0.91
2023-11-30T21:43:13.259Z,0.88
2023-11-30T21:45:40.995Z,0.95
2023-11-30T21:48:08.792Z,1.00
2023-11-30T21:50:36.522Z,0.96
2023-11-30T21:53:03.454Z,0.95
2023-11-30T21:55:31.612Z,0.99
2023-11-30T21:57:59.327Z,1.13
2023-11-30T22:00:28.774Z,0.91
2023-11-30T22:02:57.560Z,1.02
2023-11-30T22:05:30.884Z,1.04
2023-11-30T22:08:04.034Z,1.21
2023-11-30T22:10:31.781Z,1.14
2023-11-30T22:13:00.013Z,1.10
2023-11-30T22:15:29.064Z,1.06
2023-11-30T22:17:57.694Z,1.11
2023-11-30T22:20:25.421Z,1.13
2023-11-30T22:22:53.231Z,1.10
2023-11-30T22:25:20.879Z,1.05
2023-11-30T22:27:48.633Z,0.99
2023-11-30T22:30:16.682Z,1.03
2023-11-30T22:32:45.720Z,0.98
2023-11-30T22:35:13.520Z,0.98
2023-11-30T22:37:41.335Z,1.02
2023-11-30T22:40:10.407Z,1.07
2023-11-30T22:42:38.703Z,1.01
2023-11-30T22:45:07.723Z,1.07
2023-11-30T22:47:36.496Z,1.16
2023-11-30T22:50:06.464Z,1.20
2023-11-30T22:52:34.765Z,1.19
2023-11-30T22:55:02.773Z,1.21
2023-11-30T22:57:30.604Z,1.21
2023-11-30T22:59:58.551Z,1.20
2023-11-30T23:02:28.160Z,1.24
2023-11-30T23:04:56.204Z,1.24
2023-11-30T23:07:25.347Z,1.22
2023-11-30T23:09:53.161Z,1.28
2023-11-30T23:12:20.877Z,1.27
2023-11-30T23:14:48.570Z,1.23
2023-11-30T23:17:16.309Z,1.21
2023-11-30T23:19:44.107Z,1.27
2023-11-30T23:22:11.815Z,1.26
2023-11-30T23:24:43.336Z,1.36
2023-11-30T23:27:10.988Z,1.34
2023-11-30T23:29:41.187Z,1.39
2023-11-30T23:32:09.190Z,1.36
2023-11-30T23:34:38.134Z,1.38
2023-11-30T23:37:06.384Z,1.41
2023-11-30T23:39:34.234Z,1.39
2023-11-30T23:42:03.260Z,1.49
2023-11-30T23:44:31.170Z,1.38
2023-11-30T23:46:58.902Z,1.27
2023-11-30T23:49:26.908Z,1.28
2023-11-30T23:51:54.667Z,1.28
2023-11-30T23:54:22.500Z,1.33
2023-11-30T23:56:50.205Z,1.34
2023-11-30T23:59:19.211Z,1.26
